Latest Weather Observations for Ballina

IDN60801

Issued at 12:06 pm EDT Wednesday 28 January 2015 (issued every 30 minutes, with the page automatically refreshed every 10 minutes)

About weather observations | Map of weather stations | Latest weather observations for NSW | Other Formats
Station Details ID: 058198 Name: BALLINA AIRPORT AWS Lat: -28.84 Lon: 153.56 Height: 1.3 m
Data from the previous 72 hours. | See also: Recent months at Ballina
Date/Time
EDT
Temp
°C
App
Temp
°C
Dew
Point
Rel
Hum
%
Delta-T
°C
Wind Press
QNH
hPa
Press
MSL
hPa
Rain
since 9 am
mm
Dir
 
Spd
km/h
Gust
km/h
Spd
kts
Gust
kts
28/12:00pm 20.1 20.5 19.8 98 0.2 WSW 17 24 9 13 1008.4 1008.4 0.0
28/11:30am 20.7 20.9 19.4 92 0.8 WSW 17 22 9 12 1008.3 1008.3 0.0
28/11:00am 20.8 21.1 19.6 93 0.8 WSW 17 22 9 12 1008.4 1008.4 0.0
28/10:38am 20.3 20.7 19.0 92 0.8 WSW 15 20 8 11 1008.3 1008.3 0.0
28/10:30am 20.2 20.6 18.9 92 0.8 WSW 15 20 8 11 1008.1 1008.1 0.0
28/10:00am 20.1 20.0 18.8 92 0.8 WSW 17 26 9 14 1007.9 1007.9 0.0
28/09:30am 19.9 19.7 18.6 92 0.8 WSW 17 26 9 14 1007.5 1007.5 0.0
28/09:00am 19.7 19.7 18.9 95 0.5 WSW 17 22 9 12 1007.6 1007.6 13.0
28/08:30am 19.0 18.7 18.3 96 0.4 WSW 17 24 9 13 1007.3 1007.3 13.0
28/08:00am 18.6 18.4 18.4 99 0.1 WSW 17 24 9 13 1007.3 1007.3 13.0
28/07:30am 18.3 18.0 18.3 100 0.0 WSW 17 20 9 11 1007.0 1007.0 13.0
28/07:24am 18.3 18.0 18.3 100 0.0 WSW 17 20 9 11 1007.1 1007.1 13.0
28/07:00am 18.2 18.2 18.2 100 0.0 WSW 15 22 8 12 1006.7 1006.7 13.0
28/06:30am 18.2 18.6 18.2 100 0.0 WSW 13 17 7 9 1006.3 1006.3 13.0
28/06:00am 18.1 - - - - WSW 13 15 7 8 1006.1 1006.1 13.0
28/05:52am 18.0 - - - - WSW 13 17 7 9 1006.1 1006.1 12.8
28/05:30am 18.0 18.3 18.0 100 0.0 W 13 15 7 8 1006.2 1006.2 12.2
28/05:00am 18.0 18.3 18.0 100 0.0 WSW 13 15 7 8 1006.2 1006.2 11.8
28/04:56am 18.1 18.5 18.1 100 0.0 WSW 13 17 7 9 1006.3 1006.3 11.6
28/04:30am 18.0 - - - - WSW 17 24 9 13 1006.7 1006.7 11.2
28/04:00am 18.2 - - - - W 17 22 9 12 1006.9 1006.9 10.6
28/03:47am 18.2 - - - - W 17 22 9 12 1006.8 1006.8 10.6
28/03:30am 18.3 - - - - WSW 13 19 7 10 1006.7 1006.7 10.4
28/03:00am 18.4 - - - - WSW 15 22 8 12 1007.3 1007.3 10.0
28/02:30am 18.7 - - - - WSW 19 22 10 12 1007.8 1007.8 9.8
28/02:18am 18.7 - - - - SW 19 28 10 15 1008.0 1008.0 9.4
28/02:00am 19.1 - - - - WSW 20 28 11 15 1008.6 1008.6 8.8
28/01:38am 19.3 18.9 19.3 100 0.0 SW 20 30 11 16 1008.8 1008.8 7.8
28/01:30am 19.4 - 19.5 - - WSW 24 33 13 18 1009.0 1009.0 7.4
28/01:12am 20.0 20.0 19.7 98 0.2 SW 19 33 10 18 1009.0 1009.0 5.6
28/01:00am 20.3 20.4 20.3 100 0.0 SW 20 30 11 16 1009.0 1009.0 4.6
28/12:39am 20.8 20.5 20.3 97 0.3 SSW 22 33 12 18 1009.1 1009.1 2.4
28/12:30am 20.8 20.8 19.8 94 0.6 SSW 19 30 10 16 1009.1 1009.1 1.8
28/12:00am 21.3 20.5 19.2 88 1.3 SSW 22 32 12 17 1009.1 1009.1 1.0
 
Date/Time
EDT
Temp
°C
App
Temp
°C
Dew
Point
Rel
Hum
%
Delta-T
°C
Wind Press
QNH
hPa
Press
MSL
hPa
Rain
since 9 am
mm
Dir
 
Spd
km/h
Gust
km/h
Spd
kts
Gust
kts
27/11:30pm 21.3 20.1 19.2 88 1.3 S 24 37 13 20 1008.9 1008.9 0.8
27/11:00pm 21.9 22.2 19.5 86 1.5 S 17 26 9 14 1008.9 1008.9 0.6
27/10:30pm 23.0 21.3 18.1 74 3.1 S 24 30 13 16 1009.1 1009.1 0.0
27/10:00pm 24.0 22.9 17.7 68 3.9 SSE 20 32 11 17 1008.8 1008.8 0.0
27/09:30pm 24.5 23.3 17.5 65 4.4 SSE 20 32 11 17 1008.7 1008.7 0.0
27/09:00pm 24.4 23.6 18.1 68 4.0 SE 19 28 10 15 1008.4 1008.4 0.0
27/08:30pm 24.4 24.3 17.9 67 4.1 SE 15 24 8 13 1008.0 1008.0 0.0
27/08:00pm 24.5 24.0 17.7 66 4.3 SE 17 24 9 13 1007.6 1007.6 0.0
27/07:30pm 24.5 23.9 17.5 65 4.4 ESE 17 24 9 13 1007.4 1007.4 0.0
27/07:00pm 24.9 23.9 17.9 65 4.4 ESE 20 28 11 15 1006.9 1006.9 0.0
27/06:30pm 25.1 23.9 18.3 66 4.3 ESE 22 32 12 17 1006.6 1006.6 0.0
27/06:00pm 25.2 23.6 18.4 66 4.3 ESE 24 33 13 18 1006.2 1006.2 0.0
27/05:30pm 25.4 24.2 19.3 69 3.9 ESE 24 35 13 19 1006.0 1006.0 0.0
27/05:00pm 25.6 24.5 19.5 69 3.9 ESE 24 32 13 17 1006.0 1006.0 0.0
27/04:30pm 25.9 25.3 19.8 69 4.0 ESE 22 32 12 17 1006.5 1006.5 0.0
27/04:00pm 26.5 25.6 19.9 67 4.3 ESE 24 33 13 18 1006.9 1006.9 0.0
27/03:30pm 28.1 27.8 20.4 63 5.1 ESE 22 32 12 17 1007.2 1007.2 0.0
27/03:00pm 27.8 26.9 19.8 61 5.2 ESE 24 37 13 20 1007.3 1007.3 0.0
27/02:30pm 26.7 25.4 19.1 63 4.9 ESE 24 33 13 18 1007.7 1007.7 0.0
27/02:00pm 27.0 25.9 19.4 63 4.9 ESE 24 33 13 18 1008.1 1008.1 0.0
27/01:30pm 26.4 26.3 20.0 68 4.2 ESE 20 32 11 17 1008.4 1008.4 0.0
27/01:00pm 27.5 27.2 19.6 62 5.1 ESE 20 30 11 16 1008.6 1008.6 0.0
27/12:30pm 27.8 27.8 20.1 63 5.0 ESE 20 30 11 16 1008.9 1008.9 0.0
27/12:00pm 28.4 28.1 19.6 59 5.7 ESE 20 33 11 18 1009.2 1009.2 0.0
27/11:30am 28.1 27.3 19.3 58 5.7 ESE 22 35 12 19 1009.0 1009.0 0.0
27/11:00am 26.2 25.9 20.3 70 3.9 ESE 22 32 12 17 1009.4 1009.4 0.0
27/10:30am 27.1 26.1 20.4 66 4.4 ESE 26 37 14 20 1009.3 1009.3 0.0
27/10:00am 27.3 27.2 19.9 64 4.8 E 20 26 11 14 1009.1 1009.1 0.0
27/09:30am 27.6 28.1 21.2 68 4.3 ESE 20 28 11 15 1009.1 1009.1 0.0
27/09:00am 27.5 28.0 20.8 67 4.4 ESE 19 28 10 15 1009.1 1009.1 0.2
27/08:30am 27.0 26.9 20.8 69 4.1 ESE 22 30 12 16 1009.1 1009.1 0.2
27/08:00am 26.6 27.8 21.4 73 3.5 ESE 17 26 9 14 1008.9 1008.9 0.2
27/07:30am 25.9 26.7 20.7 73 3.4 ESE 17 24 9 13 1008.7 1008.7 0.2
27/07:00am 25.8 27.3 21.2 76 3.0 ESE 15 20 8 11 1008.3 1008.3 0.2
27/06:30am 24.8 27.0 21.1 80 2.4 ESE 11 15 6 8 1008.1 1008.1 0.2
27/06:00am 24.9 26.7 21.2 80 2.4 ESE 13 17 7 9 1007.7 1007.7 0.2
27/05:30am 24.9 27.0 21.0 79 2.6 E 11 17 6 9 1007.5 1007.5 0.2
27/05:00am 25.2 27.1 21.3 79 2.6 ESE 13 22 7 12 1007.5 1007.5 0.2
27/04:30am 25.0 26.7 20.9 78 2.7 ESE 13 20 7 11 1007.4 1007.4 0.2
27/04:00am 25.2 26.7 21.3 79 2.6 ESE 15 22 8 12 1007.4 1007.4 0.2
27/03:30am 25.2 27.2 21.5 80 2.5 ESE 13 20 7 11 1007.6 1007.6 0.2
27/03:00am 25.3 27.5 21.8 81 2.3 ESE 13 19 7 10 1007.9 1007.9 0.2
27/02:30am 25.0 27.3 21.3 80 2.4 ESE 11 15 6 8 1008.1 1008.1 0.2
27/02:00am 25.3 27.2 21.4 79 2.6 E 13 20 7 11 1008.1 1008.1 0.2
27/01:30am 25.1 27.1 21.6 81 2.3 E 13 20 7 11 1008.4 1008.4 0.2
27/01:00am 25.2 27.2 21.5 80 2.5 E 13 19 7 10 1008.8 1008.8 0.2
27/12:30am 25.3 26.9 21.4 79 2.6 E 15 20 8 11 1008.9 1008.9 0.2
27/12:00am 25.6 27.7 21.7 79 2.6 ESE 13 20 7 11 1009.3 1009.3 0.2
 
Date/Time
EDT
Temp
°C
App
Temp
°C
Dew
Point
Rel
Hum
%
Delta-T
°C
Wind Press
QNH
hPa
Press
MSL
hPa
Rain
since 9 am
mm
Dir
 
Spd
km/h
Gust
km/h
Spd
kts
Gust
kts
26/11:30pm 25.6 27.8 21.9 80 2.5 ESE 13 24 7 13 1009.4 1009.4 0.2
26/11:00pm 25.7 27.9 21.8 79 2.6 ESE 13 19 7 10 1009.6 1009.6 0.2
26/10:30pm 25.8 28.2 22.3 81 2.3 ESE 13 17 7 9 1009.6 1009.6 0.2
26/10:00pm 25.9 28.5 22.6 82 2.2 E 13 20 7 11 1009.6 1009.6 0.2
26/09:30pm 25.7 28.4 22.8 84 2.0 ESE 13 17 7 9 1009.5 1009.5 0.2
26/09:00pm 25.4 28.5 22.9 86 1.7 ESE 11 15 6 8 1009.4 1009.4 0.2
26/08:30pm 25.5 28.7 23.0 86 1.7 SE 11 13 6 7 1009.3 1009.3 0.2
26/08:00pm 25.9 29.2 22.6 82 2.2 SE 9 15 5 8 1009.1 1009.1 0.2
26/07:30pm 26.0 28.1 22.5 81 2.4 SE 15 22 8 12 1008.8 1008.8 0.2
26/07:00pm 26.2 29.0 22.3 79 2.6 ESE 11 17 6 9 1008.9 1008.9 0.2
26/06:30pm 26.1 27.7 22.2 79 2.6 ESE 17 24 9 13 1008.6 1008.6 0.2
26/06:00pm 26.4 27.5 22.0 77 3.0 SE 19 22 10 12 1008.0 1008.0 0.2
26/05:30pm 26.9 28.6 22.3 76 3.1 ESE 17 24 9 13 1008.1 1008.1 0.2
26/05:00pm 27.8 29.5 23.0 75 3.3 SE 19 30 10 16 1007.6 1007.6 0.2
26/04:30pm 28.6 29.1 22.6 70 4.1 SE 24 32 13 17 1007.3 1007.3 0.2
26/04:00pm 28.5 30.0 23.0 72 3.8 SE 20 26 11 14 1007.5 1007.5 0.2
26/03:30pm 29.2 31.3 24.1 74 3.5 SE 20 30 11 16 1007.0 1007.0 0.2
26/03:00pm 28.2 29.3 23.1 74 3.5 ESE 22 32 12 17 1007.3 1007.3 0.2
26/02:30pm 28.1 29.9 23.2 74 3.3 SE 19 28 10 15 1007.6 1007.6 0.2
26/02:00pm 29.1 31.0 23.8 73 3.7 SSE 20 30 11 16 1007.3 1007.3 0.2
26/01:46pm 29.7 32.1 24.6 74 3.6 SE 20 28 11 15 1007.3 1007.3 0.2
26/01:30pm 29.2 31.3 24.7 77 3.1 SSE 22 28 12 15 1007.5 1007.5 0.2
26/01:00pm 29.2 31.9 24.7 77 3.1 SSE 19 28 10 15 1007.9 1007.9 0.2
26/12:30pm 29.2 32.6 24.7 77 3.1 S 15 22 8 12 1008.1 1008.1 0.2
26/12:22pm 28.6 31.2 23.9 75 3.2 SSE 17 22 9 12 1008.2 1008.2 0.0
26/12:00pm 29.2 32.6 24.7 77 3.1 SE 15 20 8 11 1008.2 1008.2 0.0
26/11:30am 29.2 33.1 24.3 75 3.4 SE 11 19 6 10 1008.2 1008.2 0.0
26/11:00am 29.2 33.0 24.1 74 3.5 SSE 11 17 6 9 1008.3 1008.3 0.0
26/10:30am 28.9 32.5 23.1 71 4.0 SSE 9 17 5 9 1008.3 1008.3 0.0
26/10:00am 28.7 31.6 21.7 66 4.7 SE 9 17 5 9 1008.2 1008.2 0.0
26/09:30am 28.5 31.8 22.5 70 4.1 SSW 9 15 5 8 1008.1 1008.1 0.0
26/09:00am 27.3 29.7 21.6 71 3.8 SW 11 19 6 10 1008.0 1008.0 0.0
26/08:30am 26.2 28.9 21.4 75 3.2 WSW 9 11 5 6 1007.9 1007.9 0.0
26/08:00am 25.0 27.9 21.1 79 2.6 W 7 9 4 5 1007.8 1007.8 0.0
26/07:30am 23.7 27.9 21.0 85 1.8 CALM 0 0 0 0 1007.6 1007.6 0.0
26/07:00am 22.3 25.7 21.6 96 0.5 WNW 6 9 3 5 1007.2 1007.2 0.0
26/06:30am 21.1 25.0 20.4 96 0.5 CALM 0 0 0 0 1006.7 1006.7 0.0
26/06:00am 21.0 24.8 20.2 95 0.5 CALM 0 0 0 0 1006.2 1006.2 0.0
26/05:30am 21.3 25.2 20.3 94 0.6 CALM 0 0 0 0 1006.1 1006.1 0.0
26/05:00am 21.5 25.6 20.7 95 0.5 CALM 0 6 0 3 1006.0 1006.0 0.0
26/04:30am 21.5 25.5 20.5 94 0.6 CALM 0 0 0 0 1005.9 1005.9 0.0
26/04:00am 21.8 24.9 20.3 91 1.0 NNW 4 6 2 3 1005.7 1005.7 0.0
26/03:30am 22.5 25.5 20.8 90 1.1 NNW 6 9 3 5 1005.5 1005.5 0.0
26/03:00am 22.4 25.6 20.5 89 1.2 WNW 4 6 2 3 1005.6 1005.6 0.0
26/02:30am 22.7 25.6 21.0 90 1.1 WNW 7 9 4 5 1005.9 1005.9 0.0
26/02:00am 23.0 25.7 21.3 90 1.1 WNW 9 13 5 7 1006.2 1006.2 0.0
26/01:30am 23.2 25.6 20.9 87 1.5 WSW 9 11 5 6 1006.4 1006.4 0.0
26/01:00am 23.2 26.2 21.3 89 1.3 WNW 7 11 4 6 1006.3 1006.3 0.0
26/12:30am 23.3 26.3 21.2 88 1.4 W 7 11 4 6 1006.0 1006.0 0.0
26/12:00am 23.7 26.5 21.6 88 1.4 WNW 9 13 5 7 1006.2 1006.2 0.0
 
Date/Time
EDT
Temp
°C
App
Temp
°C
Dew
Point
Rel
Hum
%
Delta-T
°C
Wind Press
QNH
hPa
Press
MSL
hPa
Rain
since 9 am
mm
Dir
 
Spd
km/h
Gust
km/h
Spd
kts
Gust
kts
25/11:30pm 24.1 27.2 21.4 85 1.8 W 7 11 4 6 1006.0 1006.0 0.0
25/11:00pm 24.6 27.0 22.3 87 1.5 WNW 13 19 7 10 1006.3 1006.3 0.0
25/10:30pm 25.5 29.1 23.0 86 1.7 NW 9 15 5 8 1006.4 1006.4 0.0
25/10:00pm 25.5 29.1 23.0 86 1.7 W 9 13 5 7 1006.7 1006.7 0.0
25/09:30pm 25.8 29.3 22.9 84 2.0 W 9 13 5 7 1006.1 1006.1 0.0
25/09:00pm 26.6 29.7 22.2 77 3.0 NW 9 13 5 7 1006.0 1006.0 0.0
25/08:30pm 26.9 28.9 22.3 76 3.1 NNW 15 20 8 11 1005.2 1005.2 0.0
25/08:00pm 27.6 29.0 22.5 74 3.5 NNW 19 22 10 12 1004.8 1004.8 0.0
25/07:30pm 27.6 30.8 22.3 73 3.6 NNW 9 13 5 7 1004.4 1004.4 0.0
25/07:00pm 28.1 30.0 22.1 70 4.1 NE 15 20 8 11 1004.1 1004.1 0.0
25/06:30pm 29.0 30.0 20.2 59 5.8 NE 15 20 8 11 1003.1 1003.1 0.0
25/06:00pm 30.3 31.5 21.4 59 6.0 NE 17 20 9 11 1003.1 1003.1 0.0
25/05:30pm 30.2 30.6 21.0 58 6.1 NE 20 28 11 15 1003.2 1003.2 0.0
25/05:00pm 31.0 32.1 22.0 58 6.1 NE 19 24 10 13 1003.0 1003.0 0.0
25/04:30pm 31.6 33.3 23.4 61 5.7 NE 20 28 11 15 1002.9 1002.9 0.0
25/04:00pm 31.9 32.8 22.6 58 6.4 NE 22 28 12 15 1003.1 1003.1 0.0
25/03:30pm 31.6 32.9 22.6 59 6.2 NE 20 28 11 15 1003.2 1003.2 0.0
25/03:00pm 31.6 32.6 22.9 60 6.0 ENE 22 28 12 15 1003.4 1003.4 0.0
25/02:30pm 31.8 33.8 23.9 63 5.5 NE 20 26 11 14 1003.5 1003.5 0.0
25/02:00pm 31.5 33.6 23.1 61 5.8 NE 17 22 9 12 1003.6 1003.6 0.0
25/01:30pm 31.6 33.8 23.2 61 5.8 ENE 17 22 9 12 1003.8 1003.8 0.0
25/01:00pm 31.4 34.2 24.3 66 5.0 ENE 17 20 9 11 1004.1 1004.1 0.0
25/12:30pm 31.7 34.6 23.8 63 5.5 SW 15 24 8 13 1004.3 1004.3 0.0

Other Formats:

Comma delimited format used in spreadsheet applications
http://www.bom.gov.au/fwo/IDN60801/IDN60801.94596.axf

JavaScript Object Notation format (JSON) in row-major order
http://www.bom.gov.au/fwo/IDN60801/IDN60801.94596.json